EFTU

Turku Airport

Turku, Finland
METAR EFTU 201220Z AUTO 28005KT 9999 BKN065/// BKN077/// BKN090/// 10/05 Q1021
Observed Flight Rules
Oct-20 @ 12:20 UTC (32 minutes ago) Visual Flight Rules
Wind Visibility Clouds
280° at 5 knots 10,000+ meters
  • Broken at 6,500' AGL
  • Broken at 7,700' AGL
  • Broken at 9,000' AGL
Temperatures Readings
Current 10°C / 50°F
Dewpoint 5°C / 41°F
Humidity 71%
Altimeter 30.15" Hg
Pressure 1021 hPa
Elevation 59
METAR EFTU 201220Z AUTO 28005KT 9999 BKN065/// BKN077/// BKN090/// 10/05 Q1021
Observed Flight Rules
Oct-20 @ 12:20 UTC
(32 minutes ago)
VFR
Wind Visibility
280° at 5 knots 10,000+ meters
Clouds
  • Broken at 6,500' AGL
  • Broken at 7,700' AGL
  • Broken at 9,000' AGL
Temperature Dewpoint
10°C / 50°F 5°C / 41°F
Humidity Altimeter Pressure
71% 30.15" Hg 1021 hPa